sensor_id;sensor_type;location;lat;lon;timestamp;P1;durP1;ratioP1;P2;durP2;ratioP2
50976;SDS011;36992;48.200;12.418;2024-01-15T00:00:15;11.35;;;5.65;;
50976;SDS011;36992;48.200;12.418;2024-01-15T00:02:42;8.70;;;3.83;;
50976;SDS011;36992;48.200;12.418;2024-01-15T00:05:09;10.88;;;4.97;;
50976;SDS011;36992;48.200;12.418;2024-01-15T00:07:35;10.60;;;4.55;;
50976;SDS011;36992;48.200;12.418;2024-01-15T00:10:02;9.85;;;4.10;;
50976;SDS011;36992;48.200;12.418;2024-01-15T00:12:29;8.65;;;4.25;;
50976;SDS011;36992;48.200;12.418;2024-01-15T00:14:56;8.93;;;3.60;;
50976;SDS011;36992;48.200;12.418;2024-01-15T00:17:24;7.93;;;3.97;;
50976;SDS011;36992;48.200;12.418;2024-01-15T00:19:51;8.13;;;3.33;;
50976;SDS011;36992;48.200;12.418;2024-01-15T00:22:18;8.68;;;3.58;;
50976;SDS011;36992;48.200;12.418;2024-01-15T00:24:44;10.10;;;4.05;;
50976;SDS011;36992;48.200;12.418;2024-01-15T00:27:11;9.00;;;3.88;;
50976;SDS011;36992;48.200;12.418;2024-01-15T00:29:38;9.85;;;4.65;;
50976;SDS011;36992;48.200;12.418;2024-01-15T00:32:05;8.57;;;3.67;;
50976;SDS011;36992;48.200;12.418;2024-01-15T00:34:34;9.68;;;4.18;;
50976;SDS011;36992;48.200;12.418;2024-01-15T00:37:00;9.18;;;4.32;;
50976;SDS011;36992;48.200;12.418;2024-01-15T00:39:27;8.18;;;4.00;;
50976;SDS011;36992;48.200;12.418;2024-01-15T00:41:54;7.28;;;4.07;;
50976;SDS011;36992;48.200;12.418;2024-01-15T00:44:21;7.85;;;3.63;;
50976;SDS011;36992;48.200;12.418;2024-01-15T00:46:47;9.57;;;3.40;;
50976;SDS011;36992;48.200;12.418;2024-01-15T00:49:14;6.60;;;2.70;;
50976;SDS011;36992;48.200;12.418;2024-01-15T00:51:43;8.75;;;4.60;;
50976;SDS011;36992;48.200;12.418;2024-01-15T00:54:10;8.68;;;3.50;;
50976;SDS011;36992;48.200;12.418;2024-01-15T00:56:36;7.22;;;3.45;;
50976;SDS011;36992;48.200;12.418;2024-01-15T00:59:03;6.97;;;3.28;;
50976;SDS011;36992;48.200;12.418;2024-01-15T01:01:29;9.13;;;4.45;;
50976;SDS011;36992;48.200;12.418;2024-01-15T01:03:56;9.13;;;4.10;;
50976;SDS011;36992;48.200;12.418;2024-01-15T01:06:22;8.35;;;4.35;;
50976;SDS011;36992;48.200;12.418;2024-01-15T01:08:50;7.40;;;3.30;;
50976;SDS011;36992;48.200;12.418;2024-01-15T01:11:17;6.70;;;3.35;;
50976;SDS011;36992;48.200;12.418;2024-01-15T01:13:43;6.25;;;3.17;;
50976;SDS011;36992;48.200;12.418;2024-01-15T01:16:10;7.20;;;3.05;;
50976;SDS011;36992;48.200;12.418;2024-01-15T01:18:36;11.93;;;4.22;;
50976;SDS011;36992;48.200;12.418;2024-01-15T01:21:03;7.07;;;3.63;;
50976;SDS011;36992;48.200;12.418;2024-01-15T01:23:29;8.57;;;3.80;;
50976;SDS011;36992;48.200;12.418;2024-01-15T01:25:57;8.23;;;4.10;;
50976;SDS011;36992;48.200;12.418;2024-01-15T01:28:24;10.02;;;4.43;;
50976;SDS011;36992;48.200;12.418;2024-01-15T01:30:50;10.18;;;4.75;;
50976;SDS011;36992;48.200;12.418;2024-01-15T01:33:17;11.45;;;5.25;;
50976;SDS011;36992;48.200;12.418;2024-01-15T01:35:43;10.40;;;5.40;;
50976;SDS011;36992;48.200;12.418;2024-01-15T01:38:10;9.93;;;4.75;;
50976;SDS011;36992;48.200;12.418;2024-01-15T01:40:37;10.45;;;4.50;;
50976;SDS011;36992;48.200;12.418;2024-01-15T01:43:04;10.18;;;4.45;;
50976;SDS011;36992;48.200;12.418;2024-01-15T01:45:31;10.45;;;4.25;;
50976;SDS011;36992;48.200;12.418;2024-01-15T01:47:58;8.55;;;4.07;;
50976;SDS011;36992;48.200;12.418;2024-01-15T01:50:25;9.55;;;4.13;;
50976;SDS011;36992;48.200;12.418;2024-01-15T01:52:52;7.05;;;3.70;;
50976;SDS011;36992;48.200;12.418;2024-01-15T01:55:18;7.80;;;3.58;;
50976;SDS011;36992;48.200;12.418;2024-01-15T01:57:46;8.48;;;3.80;;
50976;SDS011;36992;48.200;12.418;2024-01-15T02:00:14;8.98;;;3.83;;
50976;SDS011;36992;48.200;12.418;2024-01-15T02:02:41;8.07;;;3.15;;
50976;SDS011;36992;48.200;12.418;2024-01-15T02:05:08;8.07;;;3.80;;
50976;SDS011;36992;48.200;12.418;2024-01-15T02:07:35;7.70;;;3.20;;
50976;SDS011;36992;48.200;12.418;2024-01-15T02:10:02;6.78;;;2.60;;
50976;SDS011;36992;48.200;12.418;2024-01-15T02:12:29;7.38;;;2.95;;
50976;SDS011;36992;48.200;12.418;2024-01-15T02:14:55;7.70;;;2.88;;
50976;SDS011;36992;48.200;12.418;2024-01-15T02:17:23;8.23;;;3.20;;
50976;SDS011;36992;48.200;12.418;2024-01-15T02:19:50;8.75;;;3.42;;
50976;SDS011;36992;48.200;12.418;2024-01-15T02:22:16;7.38;;;3.38;;
50976;SDS011;36992;48.200;12.418;2024-01-15T02:24:44;6.43;;;2.30;;
50976;SDS011;36992;48.200;12.418;2024-01-15T02:27:11;7.40;;;3.10;;
50976;SDS011;36992;48.200;12.418;2024-01-15T02:29:37;6.40;;;3.00;;
50976;SDS011;36992;48.200;12.418;2024-01-15T02:32:05;7.32;;;3.35;;
50976;SDS011;36992;48.200;12.418;2024-01-15T02:34:31;8.38;;;2.78;;
50976;SDS011;36992;48.200;12.418;2024-01-15T02:36:58;6.40;;;2.70;;
50976;SDS011;36992;48.200;12.418;2024-01-15T02:39:24;8.10;;;3.70;;
50976;SDS011;36992;48.200;12.418;2024-01-15T02:41:52;9.10;;;2.67;;
50976;SDS011;36992;48.200;12.418;2024-01-15T02:44:21;7.15;;;3.47;;
50976;SDS011;36992;48.200;12.418;2024-01-15T02:46:51;7.57;;;3.35;;
50976;SDS011;36992;48.200;12.418;2024-01-15T02:49:18;8.43;;;3.63;;
50976;SDS011;36992;48.200;12.418;2024-01-15T02:51:44;10.30;;;4.47;;
50976;SDS011;36992;48.200;12.418;2024-01-15T02:54:17;8.80;;;4.00;;
50976;SDS011;36992;48.200;12.418;2024-01-15T02:56:44;8.75;;;3.65;;
50976;SDS011;36992;48.200;12.418;2024-01-15T02:59:13;10.85;;;3.60;;
50976;SDS011;36992;48.200;12.418;2024-01-15T03:01:40;8.48;;;4.10;;
50976;SDS011;36992;48.200;12.418;2024-01-15T03:04:07;10.95;;;4.43;;
50976;SDS011;36992;48.200;12.418;2024-01-15T03:06:33;11.43;;;4.28;;
50976;SDS011;36992;48.200;12.418;2024-01-15T03:09:00;10.20;;;3.63;;
50976;SDS011;36992;48.200;12.418;2024-01-15T03:11:28;8.77;;;4.22;;
50976;SDS011;36992;48.200;12.418;2024-01-15T03:13:57;8.60;;;3.58;;
50976;SDS011;36992;48.200;12.418;2024-01-15T03:16:26;7.80;;;3.00;;
50976;SDS011;36992;48.200;12.418;2024-01-15T03:18:53;7.05;;;3.08;;
50976;SDS011;36992;48.200;12.418;2024-01-15T03:21:22;6.53;;;2.50;;
50976;SDS011;36992;48.200;12.418;2024-01-15T03:23:51;6.68;;;3.30;;
50976;SDS011;36992;48.200;12.418;2024-01-15T03:26:18;7.65;;;3.00;;
50976;SDS011;36992;48.200;12.418;2024-01-15T03:28:45;7.63;;;3.60;;
50976;SDS011;36992;48.200;12.418;2024-01-15T03:31:14;10.13;;;3.50;;
50976;SDS011;36992;48.200;12.418;2024-01-15T03:33:42;8.05;;;3.28;;
50976;SDS011;36992;48.200;12.418;2024-01-15T03:36:09;6.63;;;3.00;;
50976;SDS011;36992;48.200;12.418;2024-01-15T03:38:39;7.68;;;3.83;;
50976;SDS011;36992;48.200;12.418;2024-01-15T03:41:07;6.13;;;2.53;;
50976;SDS011;36992;48.200;12.418;2024-01-15T03:43:34;5.80;;;2.78;;
50976;SDS011;36992;48.200;12.418;2024-01-15T03:46:01;6.68;;;2.78;;
50976;SDS011;36992;48.200;12.418;2024-01-15T03:48:29;5.85;;;2.85;;
50976;SDS011;36992;48.200;12.418;2024-01-15T03:50:57;6.30;;;2.85;;
50976;SDS011;36992;48.200;12.418;2024-01-15T03:53:24;6.70;;;2.85;;
50976;SDS011;36992;48.200;12.418;2024-01-15T03:55:51;6.57;;;2.53;;
50976;SDS011;36992;48.200;12.418;2024-01-15T03:58:17;6.78;;;2.47;;
50976;SDS011;36992;48.200;12.418;2024-01-15T04:00:44;6.28;;;2.67;;
50976;SDS011;36992;48.200;12.418;2024-01-15T04:03:11;9.05;;;3.58;;
50976;SDS011;36992;48.200;12.418;2024-01-15T04:05:38;8.35;;;3.42;;
50976;SDS011;36992;48.200;12.418;2024-01-15T04:08:06;5.95;;;2.28;;
50976;SDS011;36992;48.200;12.418;2024-01-15T04:10:33;7.13;;;2.50;;
50976;SDS011;36992;48.200;12.418;2024-01-15T04:13:00;6.32;;;2.53;;
50976;SDS011;36992;48.200;12.418;2024-01-15T04:15:28;8.13;;;3.30;;
50976;SDS011;36992;48.200;12.418;2024-01-15T04:17:55;6.38;;;2.28;;
50976;SDS011;36992;48.200;12.418;2024-01-15T04:20:22;5.22;;;1.70;;
50976;SDS011;36992;48.200;12.418;2024-01-15T04:22:48;4.57;;;2.20;;
50976;SDS011;36992;48.200;12.418;2024-01-15T04:25:16;7.70;;;2.80;;
50976;SDS011;36992;48.200;12.418;2024-01-15T04:27:43;6.28;;;2.38;;
50976;SDS011;36992;48.200;12.418;2024-01-15T04:30:10;5.25;;;2.58;;
50976;SDS011;36992;48.200;12.418;2024-01-15T04:32:37;5.30;;;2.17;;
50976;SDS011;36992;48.200;12.418;2024-01-15T04:35:04;7.68;;;3.22;;
50976;SDS011;36992;48.200;12.418;2024-01-15T04:37:31;6.10;;;2.25;;
50976;SDS011;36992;48.200;12.418;2024-01-15T04:39:57;5.43;;;2.13;;
50976;SDS011;36992;48.200;12.418;2024-01-15T04:42:26;4.65;;;1.77;;
50976;SDS011;36992;48.200;12.418;2024-01-15T04:44:53;5.53;;;1.67;;
50976;SDS011;36992;48.200;12.418;2024-01-15T04:47:20;6.70;;;2.58;;
50976;SDS011;36992;48.200;12.418;2024-01-15T04:49:47;5.50;;;2.55;;
50976;SDS011;36992;48.200;12.418;2024-01-15T04:52:14;6.57;;;2.50;;
50976;SDS011;36992;48.200;12.418;2024-01-15T04:54:40;7.75;;;2.78;;
50976;SDS011;36992;48.200;12.418;2024-01-15T04:57:07;6.68;;;2.63;;
50976;SDS011;36992;48.200;12.418;2024-01-15T04:59:34;7.35;;;2.92;;
50976;SDS011;36992;48.200;12.418;2024-01-15T05:02:01;5.63;;;2.90;;
50976;SDS011;36992;48.200;12.418;2024-01-15T05:04:27;6.40;;;2.33;;
50976;SDS011;36992;48.200;12.418;2024-01-15T05:06:54;5.97;;;2.35;;
50976;SDS011;36992;48.200;12.418;2024-01-15T05:09:21;6.97;;;3.47;;
50976;SDS011;36992;48.200;12.418;2024-01-15T05:11:47;7.55;;;2.85;;
50976;SDS011;36992;48.200;12.418;2024-01-15T05:14:14;6.43;;;2.17;;
50976;SDS011;36992;48.200;12.418;2024-01-15T05:16:44;5.55;;;2.33;;
50976;SDS011;36992;48.200;12.418;2024-01-15T05:19:12;4.00;;;1.95;;
50976;SDS011;36992;48.200;12.418;2024-01-15T05:21:39;4.65;;;1.80;;
50976;SDS011;36992;48.200;12.418;2024-01-15T05:24:06;6.60;;;2.58;;
50976;SDS011;36992;48.200;12.418;2024-01-15T05:26:32;6.35;;;2.67;;
50976;SDS011;36992;48.200;12.418;2024-01-15T05:28:58;5.95;;;2.55;;
50976;SDS011;36992;48.200;12.418;2024-01-15T05:31:25;5.80;;;2.42;;
50976;SDS011;36992;48.200;12.418;2024-01-15T05:33:53;7.15;;;2.42;;
50976;SDS011;36992;48.200;12.418;2024-01-15T05:36:19;4.88;;;2.22;;
50976;SDS011;36992;48.200;12.418;2024-01-15T05:38:46;4.85;;;1.90;;
50976;SDS011;36992;48.200;12.418;2024-01-15T05:41:13;4.03;;;1.92;;
50976;SDS011;36992;48.200;12.418;2024-01-15T05:43:40;6.43;;;2.55;;
50976;SDS011;36992;48.200;12.418;2024-01-15T05:46:06;5.88;;;2.08;;
50976;SDS011;36992;48.200;12.418;2024-01-15T05:48:32;6.55;;;2.47;;
50976;SDS011;36992;48.200;12.418;2024-01-15T05:51:00;6.18;;;2.05;;
50976;SDS011;36992;48.200;12.418;2024-01-15T05:53:27;4.82;;;2.33;;
50976;SDS011;36992;48.200;12.418;2024-01-15T05:55:54;4.82;;;1.90;;
50976;SDS011;36992;48.200;12.418;2024-01-15T05:58:21;4.38;;;1.38;;
50976;SDS011;36992;48.200;12.418;2024-01-15T06:00:47;5.40;;;2.42;;
50976;SDS011;36992;48.200;12.418;2024-01-15T06:03:15;6.00;;;2.42;;
50976;SDS011;36992;48.200;12.418;2024-01-15T06:05:41;6.43;;;2.70;;
50976;SDS011;36992;48.200;12.418;2024-01-15T06:08:09;7.63;;;2.70;;
50976;SDS011;36992;48.200;12.418;2024-01-15T06:10:36;8.60;;;3.28;;
50976;SDS011;36992;48.200;12.418;2024-01-15T06:13:02;6.45;;;3.00;;
50976;SDS011;36992;48.200;12.418;2024-01-15T06:15:29;7.53;;;3.22;;
50976;SDS011;36992;48.200;12.418;2024-01-15T06:17:55;5.70;;;2.47;;
50976;SDS011;36992;48.200;12.418;2024-01-15T06:20:22;5.78;;;2.65;;
50976;SDS011;36992;48.200;12.418;2024-01-15T06:22:48;5.60;;;2.13;;
50976;SDS011;36992;48.200;12.418;2024-01-15T06:25:16;4.38;;;1.58;;
50976;SDS011;36992;48.200;12.418;2024-01-15T06:27:42;4.65;;;1.85;;
50976;SDS011;36992;48.200;12.418;2024-01-15T06:30:09;5.53;;;2.78;;
50976;SDS011;36992;48.200;12.418;2024-01-15T06:32:37;5.50;;;2.15;;
50976;SDS011;36992;48.200;12.418;2024-01-15T06:35:03;4.85;;;2.10;;
50976;SDS011;36992;48.200;12.418;2024-01-15T06:37:30;8.30;;;3.53;;
50976;SDS011;36992;48.200;12.418;2024-01-15T06:39:57;4.25;;;1.85;;
50976;SDS011;36992;48.200;12.418;2024-01-15T06:42:25;5.57;;;2.13;;
50976;SDS011;36992;48.200;12.418;2024-01-15T06:44:52;4.15;;;1.77;;
50976;SDS011;36992;48.200;12.418;2024-01-15T06:47:18;3.83;;;1.48;;
50976;SDS011;36992;48.200;12.418;2024-01-15T06:49:45;3.20;;;1.27;;
50976;SDS011;36992;48.200;12.418;2024-01-15T06:52:11;4.63;;;1.50;;
50976;SDS011;36992;48.200;12.418;2024-01-15T06:54:38;5.03;;;2.17;;
50976;SDS011;36992;48.200;12.418;2024-01-15T06:57:05;4.32;;;2.42;;
50976;SDS011;36992;48.200;12.418;2024-01-15T06:59:33;5.20;;;2.22;;
50976;SDS011;36992;48.200;12.418;2024-01-15T07:02:00;4.68;;;1.50;;
50976;SDS011;36992;48.200;12.418;2024-01-15T07:04:26;6.07;;;2.30;;
50976;SDS011;36992;48.200;12.418;2024-01-15T07:06:53;3.65;;;1.63;;
50976;SDS011;36992;48.200;12.418;2024-01-15T07:09:19;5.13;;;2.20;;
50976;SDS011;36992;48.200;12.418;2024-01-15T07:11:46;4.03;;;2.10;;
50976;SDS011;36992;48.200;12.418;2024-01-15T07:14:12;3.85;;;1.60;;
50976;SDS011;36992;48.200;12.418;2024-01-15T07:16:40;4.15;;;1.20;;
50976;SDS011;36992;48.200;12.418;2024-01-15T07:19:07;5.28;;;2.55;;
50976;SDS011;36992;48.200;12.418;2024-01-15T07:21:33;4.60;;;2.00;;
50976;SDS011;36992;48.200;12.418;2024-01-15T07:23:59;5.82;;;2.40;;
50976;SDS011;36992;48.200;12.418;2024-01-15T07:26:26;7.03;;;2.67;;
50976;SDS011;36992;48.200;12.418;2024-01-15T07:28:52;4.95;;;2.05;;
50976;SDS011;36992;48.200;12.418;2024-01-15T07:31:19;4.00;;;1.63;;
50976;SDS011;36992;48.200;12.418;2024-01-15T07:33:47;4.13;;;1.40;;
50976;SDS011;36992;48.200;12.418;2024-01-15T07:36:14;4.70;;;1.65;;
50976;SDS011;36992;48.200;12.418;2024-01-15T07:38:40;3.80;;;1.33;;
50976;SDS011;36992;48.200;12.418;2024-01-15T07:41:08;3.08;;;1.25;;
50976;SDS011;36992;48.200;12.418;2024-01-15T07:43:34;2.60;;;1.27;;
50976;SDS011;36992;48.200;12.418;2024-01-15T07:46:00;3.50;;;1.50;;
50976;SDS011;36992;48.200;12.418;2024-01-15T07:48:27;4.47;;;1.08;;
50976;SDS011;36992;48.200;12.418;2024-01-15T07:50:55;5.30;;;2.08;;
50976;SDS011;36992;48.200;12.418;2024-01-15T07:53:21;4.45;;;1.38;;
50976;SDS011;36992;48.200;12.418;2024-01-15T07:55:48;2.10;;;0.80;;
50976;SDS011;36992;48.200;12.418;2024-01-15T07:58:14;2.85;;;1.10;;
50976;SDS011;36992;48.200;12.418;2024-01-15T08:00:41;3.47;;;1.38;;
50976;SDS011;36992;48.200;12.418;2024-01-15T08:03:07;3.28;;;1.30;;
50976;SDS011;36992;48.200;12.418;2024-01-15T08:05:33;3.03;;;1.00;;
50976;SDS011;36992;48.200;12.418;2024-01-15T08:08:01;5.95;;;2.10;;
50976;SDS011;36992;48.200;12.418;2024-01-15T08:10:28;3.75;;;1.33;;
50976;SDS011;36992;48.200;12.418;2024-01-15T08:12:55;3.80;;;1.55;;
50976;SDS011;36992;48.200;12.418;2024-01-15T08:15:21;1.52;;;0.60;;
50976;SDS011;36992;48.200;12.418;2024-01-15T08:17:47;4.03;;;1.75;;
50976;SDS011;36992;48.200;12.418;2024-01-15T08:20:15;4.38;;;1.33;;
50976;SDS011;36992;48.200;12.418;2024-01-15T08:22:42;3.67;;;1.33;;
50976;SDS011;36992;48.200;12.418;2024-01-15T08:25:09;3.85;;;1.60;;
50976;SDS011;36992;48.200;12.418;2024-01-15T08:27:38;4.38;;;1.92;;
50976;SDS011;36992;48.200;12.418;2024-01-15T08:30:05;4.47;;;1.35;;
50976;SDS011;36992;48.200;12.418;2024-01-15T08:32:32;5.10;;;1.95;;
50976;SDS011;36992;48.200;12.418;2024-01-15T08:35:01;3.15;;;1.58;;
50976;SDS011;36992;48.200;12.418;2024-01-15T08:37:29;6.15;;;2.25;;
50976;SDS011;36992;48.200;12.418;2024-01-15T08:39:55;3.20;;;1.27;;
50976;SDS011;36992;48.200;12.418;2024-01-15T08:42:23;3.03;;;1.30;;
50976;SDS011;36992;48.200;12.418;2024-01-15T08:44:49;2.83;;;0.80;;
50976;SDS011;36992;48.200;12.418;2024-01-15T08:47:16;3.20;;;1.30;;
50976;SDS011;36992;48.200;12.418;2024-01-15T08:49:42;3.10;;;1.33;;
50976;SDS011;36992;48.200;12.418;2024-01-15T08:52:10;3.28;;;1.23;;
50976;SDS011;36992;48.200;12.418;2024-01-15T08:54:37;4.40;;;1.85;;
50976;SDS011;36992;48.200;12.418;2024-01-15T08:57:03;3.33;;;1.35;;
50976;SDS011;36992;48.200;12.418;2024-01-15T08:59:31;3.95;;;1.45;;
50976;SDS011;36992;48.200;12.418;2024-01-15T09:01:57;4.13;;;1.30;;
50976;SDS011;36992;48.200;12.418;2024-01-15T09:04:24;5.15;;;2.20;;
50976;SDS011;36992;48.200;12.418;2024-01-15T09:06:51;4.57;;;1.58;;
50976;SDS011;36992;48.200;12.418;2024-01-15T09:09:17;3.95;;;1.58;;
50976;SDS011;36992;48.200;12.418;2024-01-15T09:11:45;4.35;;;2.20;;
50976;SDS011;36992;48.200;12.418;2024-01-15T09:14:11;3.35;;;1.48;;
50976;SDS011;36992;48.200;12.418;2024-01-15T09:16:39;3.50;;;1.45;;
50976;SDS011;36992;48.200;12.418;2024-01-15T09:19:06;5.18;;;1.70;;
50976;SDS011;36992;48.200;12.418;2024-01-15T09:21:33;4.57;;;2.20;;
50976;SDS011;36992;48.200;12.418;2024-01-15T09:23:59;6.22;;;2.78;;
50976;SDS011;36992;48.200;12.418;2024-01-15T09:26:26;7.32;;;2.47;;
50976;SDS011;36992;48.200;12.418;2024-01-15T09:28:52;6.28;;;2.28;;
50976;SDS011;36992;48.200;12.418;2024-01-15T09:31:19;7.18;;;2.58;;
50976;SDS011;36992;48.200;12.418;2024-01-15T09:33:47;5.40;;;2.28;;
50976;SDS011;36992;48.200;12.418;2024-01-15T09:36:14;5.35;;;2.28;;
50976;SDS011;36992;48.200;12.418;2024-01-15T09:38:41;5.28;;;1.88;;
50976;SDS011;36992;48.200;12.418;2024-01-15T09:41:07;6.15;;;2.50;;
50976;SDS011;36992;48.200;12.418;2024-01-15T09:43:34;5.05;;;2.35;;
50976;SDS011;36992;48.200;12.418;2024-01-15T09:46:02;6.15;;;2.83;;
50976;SDS011;36992;48.200;12.418;2024-01-15T09:48:29;6.03;;;2.40;;
50976;SDS011;36992;48.200;12.418;2024-01-15T09:51:00;4.93;;;2.17;;
50976;SDS011;36992;48.200;12.418;2024-01-15T09:53:28;7.93;;;2.13;;
50976;SDS011;36992;48.200;12.418;2024-01-15T09:55:54;4.07;;;1.75;;
50976;SDS011;36992;48.200;12.418;2024-01-15T09:58:21;4.95;;;1.50;;
50976;SDS011;36992;48.200;12.418;2024-01-15T10:00:48;4.53;;;1.95;;
50976;SDS011;36992;48.200;12.418;2024-01-15T10:03:15;3.90;;;1.38;;
50976;SDS011;36992;48.200;12.418;2024-01-15T10:05:41;4.82;;;2.05;;
50976;SDS011;36992;48.200;12.418;2024-01-15T10:08:10;4.40;;;2.00;;
50976;SDS011;36992;48.200;12.418;2024-01-15T10:10:37;3.92;;;1.67;;
50976;SDS011;36992;48.200;12.418;2024-01-15T10:13:04;5.28;;;2.40;;
50976;SDS011;36992;48.200;12.418;2024-01-15T10:15:33;4.40;;;1.65;;
50976;SDS011;36992;48.200;12.418;2024-01-15T10:18:01;5.10;;;2.20;;
50976;SDS011;36992;48.200;12.418;2024-01-15T10:20:28;3.70;;;1.38;;
50976;SDS011;36992;48.200;12.418;2024-01-15T10:22:55;4.20;;;1.92;;
50976;SDS011;36992;48.200;12.418;2024-01-15T10:25:23;5.57;;;1.75;;
50976;SDS011;36992;48.200;12.418;2024-01-15T10:27:58;6.70;;;2.35;;
50976;SDS011;36992;48.200;12.418;2024-01-15T10:30:26;6.70;;;2.72;;
50976;SDS011;36992;48.200;12.418;2024-01-15T10:32:57;5.25;;;2.15;;
50976;SDS011;36992;48.200;12.418;2024-01-15T10:35:26;4.72;;;1.70;;
50976;SDS011;36992;48.200;12.418;2024-01-15T10:37:55;4.13;;;1.75;;
50976;SDS011;36992;48.200;12.418;2024-01-15T10:40:23;7.32;;;2.35;;
50976;SDS011;36992;48.200;12.418;2024-01-15T10:42:50;4.53;;;1.60;;
50976;SDS011;36992;48.200;12.418;2024-01-15T10:45:16;4.57;;;2.05;;
50976;SDS011;36992;48.200;12.418;2024-01-15T10:47:43;5.82;;;2.25;;
50976;SDS011;36992;48.200;12.418;2024-01-15T10:50:11;4.15;;;1.90;;
50976;SDS011;36992;48.200;12.418;2024-01-15T10:52:38;4.43;;;1.40;;
50976;SDS011;36992;48.200;12.418;2024-01-15T10:55:07;3.80;;;1.75;;
50976;SDS011;36992;48.200;12.418;2024-01-15T10:57:36;5.15;;;2.17;;
50976;SDS011;36992;48.200;12.418;2024-01-15T11:00:03;4.43;;;1.88;;
50976;SDS011;36992;48.200;12.418;2024-01-15T11:02:31;3.45;;;1.55;;
50976;SDS011;36992;48.200;12.418;2024-01-15T11:04:59;5.00;;;1.67;;
50976;SDS011;36992;48.200;12.418;2024-01-15T11:07:26;7.47;;;2.85;;
50976;SDS011;36992;48.200;12.418;2024-01-15T11:09:52;5.13;;;2.05;;
50976;SDS011;36992;48.200;12.418;2024-01-15T11:12:19;4.13;;;1.50;;
50976;SDS011;36992;48.200;12.418;2024-01-15T11:14:47;3.40;;;1.30;;
50976;SDS011;36992;48.200;12.418;2024-01-15T11:17:14;3.10;;;1.38;;
50976;SDS011;36992;48.200;12.418;2024-01-15T11:19:42;3.70;;;1.40;;
50976;SDS011;36992;48.200;12.418;2024-01-15T11:22:10;5.22;;;2.40;;
50976;SDS011;36992;48.200;12.418;2024-01-15T11:25:15;4.57;;;1.58;;
50976;SDS011;36992;48.200;12.418;2024-01-15T11:27:44;5.05;;;1.50;;
50976;SDS011;36992;48.200;12.418;2024-01-15T11:30:14;6.00;;;2.10;;
50976;SDS011;36992;48.200;12.418;2024-01-15T11:32:40;4.07;;;1.98;;
50976;SDS011;36992;48.200;12.418;2024-01-15T11:35:07;4.03;;;1.42;;
50976;SDS011;36992;48.200;12.418;2024-01-15T11:40:35;3.33;;;1.52;;
50976;SDS011;36992;48.200;12.418;2024-01-15T11:43:03;3.33;;;1.30;;
50976;SDS011;36992;48.200;12.418;2024-01-15T11:45:32;5.65;;;1.80;;
50976;SDS011;36992;48.200;12.418;2024-01-15T11:48:09;3.05;;;1.10;;
50976;SDS011;36992;48.200;12.418;2024-01-15T11:50:38;2.78;;;1.00;;
50976;SDS011;36992;48.200;12.418;2024-01-15T11:53:08;3.05;;;1.00;;
50976;SDS011;36992;48.200;12.418;2024-01-15T11:55:42;4.65;;;1.60;;
50976;SDS011;36992;48.200;12.418;2024-01-15T11:58:11;5.28;;;1.67;;
50976;SDS011;36992;48.200;12.418;2024-01-15T12:00:42;4.22;;;1.45;;
50976;SDS011;36992;48.200;12.418;2024-01-15T12:03:09;2.75;;;1.35;;
50976;SDS011;36992;48.200;12.418;2024-01-15T12:05:36;3.05;;;0.95;;
50976;SDS011;36992;48.200;12.418;2024-01-15T12:08:03;2.40;;;1.20;;
50976;SDS011;36992;48.200;12.418;2024-01-15T12:10:35;2.95;;;0.68;;
50976;SDS011;36992;48.200;12.418;2024-01-15T12:13:04;2.35;;;0.73;;
50976;SDS011;36992;48.200;12.418;2024-01-15T12:15:32;4.45;;;1.88;;
50976;SDS011;36992;48.200;12.418;2024-01-15T12:18:01;3.88;;;1.17;;
50976;SDS011;36992;48.200;12.418;2024-01-15T12:20:28;2.63;;;0.98;;
50976;SDS011;36992;48.200;12.418;2024-01-15T12:22:56;2.72;;;1.13;;
50976;SDS011;36992;48.200;12.418;2024-01-15T12:25:23;4.18;;;1.40;;
50976;SDS011;36992;48.200;12.418;2024-01-15T12:27:52;2.75;;;0.98;;
50976;SDS011;36992;48.200;12.418;2024-01-15T12:30:19;3.33;;;1.13;;
50976;SDS011;36992;48.200;12.418;2024-01-15T12:32:46;4.15;;;1.17;;
50976;SDS011;36992;48.200;12.418;2024-01-15T12:35:14;3.00;;;1.30;;
50976;SDS011;36992;48.200;12.418;2024-01-15T12:37:41;2.30;;;0.80;;
50976;SDS011;36992;48.200;12.418;2024-01-15T12:40:09;3.47;;;1.10;;
50976;SDS011;36992;48.200;12.418;2024-01-15T12:42:37;3.70;;;1.40;;
50976;SDS011;36992;48.200;12.418;2024-01-15T12:45:04;3.10;;;0.90;;
50976;SDS011;36992;48.200;12.418;2024-01-15T12:47:33;4.82;;;1.70;;
50976;SDS011;36992;48.200;12.418;2024-01-15T12:49:59;3.83;;;1.25;;
50976;SDS011;36992;48.200;12.418;2024-01-15T12:52:27;6.00;;;2.13;;
50976;SDS011;36992;48.200;12.418;2024-01-15T12:54:55;4.80;;;0.90;;
50976;SDS011;36992;48.200;12.418;2024-01-15T12:57:21;3.17;;;0.95;;
50976;SDS011;36992;48.200;12.418;2024-01-15T12:59:48;4.50;;;2.17;;
50976;SDS011;36992;48.200;12.418;2024-01-15T13:02:15;6.65;;;2.42;;
50976;SDS011;36992;48.200;12.418;2024-01-15T13:04:42;5.00;;;1.70;;
50976;SDS011;36992;48.200;12.418;2024-01-15T13:07:09;3.60;;;1.40;;
50976;SDS011;36992;48.200;12.418;2024-01-15T13:09:36;2.25;;;0.73;;
50976;SDS011;36992;48.200;12.418;2024-01-15T13:12:03;2.40;;;0.70;;
50976;SDS011;36992;48.200;12.418;2024-01-15T13:14:30;1.73;;;0.60;;
50976;SDS011;36992;48.200;12.418;2024-01-15T13:16:57;1.63;;;0.70;;
50976;SDS011;36992;48.200;12.418;2024-01-15T13:19:24;3.10;;;1.20;;
50976;SDS011;36992;48.200;12.418;2024-01-15T13:21:51;2.05;;;0.60;;
50976;SDS011;36992;48.200;12.418;2024-01-15T13:24:18;2.83;;;0.73;;
50976;SDS011;36992;48.200;12.418;2024-01-15T13:26:46;2.78;;;0.70;;
50976;SDS011;36992;48.200;12.418;2024-01-15T13:29:12;3.22;;;1.23;;
50976;SDS011;36992;48.200;12.418;2024-01-15T13:31:39;1.77;;;0.60;;
50976;SDS011;36992;48.200;12.418;2024-01-15T13:34:06;1.92;;;0.50;;
50976;SDS011;36992;48.200;12.418;2024-01-15T13:36:32;1.38;;;0.40;;
50976;SDS011;36992;48.200;12.418;2024-01-15T13:38:59;3.20;;;1.15;;
50976;SDS011;36992;48.200;12.418;2024-01-15T13:41:25;1.83;;;0.50;;
50976;SDS011;36992;48.200;12.418;2024-01-15T13:43:54;4.43;;;1.20;;
50976;SDS011;36992;48.200;12.418;2024-01-15T13:46:23;2.08;;;0.70;;
50976;SDS011;36992;48.200;12.418;2024-01-15T13:48:51;2.97;;;0.82;;
50976;SDS011;36992;48.200;12.418;2024-01-15T13:51:18;3.03;;;1.27;;
50976;SDS011;36992;48.200;12.418;2024-01-15T13:53:44;2.85;;;0.90;;
50976;SDS011;36992;48.200;12.418;2024-01-15T13:56:11;3.15;;;0.90;;
50976;SDS011;36992;48.200;12.418;2024-01-15T13:58:37;2.20;;;0.60;;
50976;SDS011;36992;48.200;12.418;2024-01-15T14:01:05;1.98;;;0.68;;
50976;SDS011;36992;48.200;12.418;2024-01-15T14:03:32;2.63;;;0.60;;
50976;SDS011;36992;48.200;12.418;2024-01-15T14:05:59;2.55;;;0.60;;
50976;SDS011;36992;48.200;12.418;2024-01-15T14:08:27;2.42;;;0.85;;
50976;SDS011;36992;48.200;12.418;2024-01-15T14:10:54;1.85;;;0.70;;
50976;SDS011;36992;48.200;12.418;2024-01-15T14:13:22;1.08;;;0.30;;
50976;SDS011;36992;48.200;12.418;2024-01-15T14:15:48;1.40;;;0.40;;
50976;SDS011;36992;48.200;12.418;2024-01-15T14:18:16;2.20;;;0.68;;
50976;SDS011;36992;48.200;12.418;2024-01-15T14:20:42;3.85;;;0.90;;
50976;SDS011;36992;48.200;12.418;2024-01-15T14:23:09;2.90;;;0.73;;
50976;SDS011;36992;48.200;12.418;2024-01-15T14:25:35;3.97;;;1.27;;
50976;SDS011;36992;48.200;12.418;2024-01-15T14:28:02;2.65;;;1.00;;
50976;SDS011;36992;48.200;12.418;2024-01-15T14:30:29;2.38;;;1.00;;
50976;SDS011;36992;48.200;12.418;2024-01-15T14:32:55;8.73;;;0.70;;
50976;SDS011;36992;48.200;12.418;2024-01-15T14:35:23;2.10;;;0.85;;